Latest Coastal Weather Observations for Nullarbor

IDS60701

Issued at 1:21 pm CDT Tuesday 17 January 2017 (issued every 10 minutes, with the page automatically refreshed every 10 minutes)

About coastal observations | Map of coastal stations | Coastal observations for SA | Marine services | Other Formats
Station Details ID: 018106 Name: NULLARBOR Lat: -31.45 Lon: 130.90 Height: 64.0 m
Data from the previous 72 hours. | See also: Recent months at Nullarbor
Date/Time
CDT
Temp
°C
Wind Pressure Rain since
9am
mm
Weather Cloud Vis
km
Sea
Height
m
Swell
Dir  Spd
kts
Gust
kts
hPa Trend Height
m
Period
s
Dir
17/01:00pm 39.4 NNW 19 26 1005.4 - 0.0 - Partly cloudy 10 - - - -
17/12:30pm 38.5 N 18 23 1005.6 - 0.0 - - 10 - - - -
17/12:00pm 37.0 NNW 19 24 1005.9 - 0.0 - Mostly clear 10 - - - -
17/11:30am 35.9 NNW 15 20 1006.0 - 0.0 - Partly cloudy 10 - - - -
17/11:00am 34.1 NNW 13 16 1006.1 - 0.0 - Cloudy 10 - - - -
17/10:30am 33.5 N 20 25 1005.6 - 0.0 - Partly cloudy 10 - - - -
17/10:00am 32.9 N 17 21 1005.6 - 0.0 - - 10 - - - -
17/09:30am 30.3 N 19 24 1005.5 - 0.0 - Partly cloudy 10 - - - -
17/09:00am 30.6 NNE 15 18 1005.3 - 0.0 - Mostly cloudy 10 - - - -
17/08:30am 27.6 NNE 13 16 1005.2 - 0.0 - Partly cloudy 10 - - - -
17/08:00am 24.4 NNE 11 14 1004.9 - 0.0 - - 10 - - - -
17/07:30am 22.5 NNE 10 14 1004.6 - 0.0 - - - - - - -
17/07:00am 21.7 NE 9 12 1004.4 - 0.0 - - - - - - -
17/06:30am 22.1 NE 9 11 1004.0 - 0.0 - - 10 - - - -
17/06:00am 23.0 NE 9 12 1003.8 - 0.0 - - 10 - - - -
17/05:30am 23.5 NE 10 12 1003.4 - 0.0 - - 10 - - - -
17/05:00am 23.4 NE 9 11 1003.4 - 0.0 - - 10 - - - -
17/04:30am 23.9 NE 10 12 1003.6 - 0.0 - - 10 - - - -
17/04:00am 23.3 NE 9 11 1003.8 - 0.0 - - 10 - - - -
17/03:30am 23.5 ENE 9 10 1004.0 - 0.0 - - 10 - - - -
17/03:00am 24.1 ENE 9 10 1004.2 - 0.0 - - 10 - - - -
17/02:30am 25.5 ENE 10 12 1004.5 - 0.0 - - 10 - - - -
17/02:00am 25.6 ENE 11 13 1004.8 - 0.0 - - 10 - - - -
17/01:30am 25.3 ENE 9 11 1005.3 - 0.0 - - 10 - - - -
17/01:00am 26.0 ENE 9 10 1005.5 - 0.0 - - 10 - - - -
17/12:30am 25.9 ENE 9 10 1005.6 - 0.0 - - 10 - - - -
17/12:00am 27.0 E 8 9 1005.6 - 0.0 - - 10 - - - -
 
Date/Time
CDT
Temp
°C
Wind Pressure Rain since
9am
mm
Weather Cloud Vis
km
Sea
Height
m
Swell
Dir  Spd
kts
Gust
kts
hPa Trend Height
m
Period
s
Dir
16/11:30pm 27.7 E 9 11 1005.5 - 0.0 - - 10 - - - -
16/11:00pm 27.7 E 9 11 1005.5 - 0.0 - - 10 - - - -
16/10:30pm 27.9 E 10 13 1005.3 - 0.0 - - 10 - - - -
16/10:00pm 28.2 E 11 14 1005.4 - 0.0 - - 10 - - - -
16/09:30pm 28.3 E 11 15 1005.5 - 0.0 - - 10 - - - -
16/09:00pm 28.6 ESE 10 13 1005.3 - 0.0 - - 10 - - - -
16/08:30pm 30.4 ESE 11 14 1005.0 - 0.0 - - 10 - - - -
16/08:00pm 32.3 E 10 13 1004.8 - 0.0 - - 10 - - - -
16/07:53pm 32.8 E 11 14 1004.7 - 0.0 - - 10 - - - -
16/07:30pm 37.8 NE 8 11 1004.5 - 0.0 - - 10 - - - -
16/07:00pm 38.2 NNE 9 14 1004.4 - 0.0 - - 10 - - - -
16/06:30pm 38.5 NNE 6 11 1004.4 - 0.0 - - 10 - - - -
16/06:00pm 38.8 NE 8 11 1004.6 - 0.0 - - 10 - - - -
16/05:30pm 38.8 NNE 8 12 1004.9 - 0.0 - - 10 - - - -
16/05:00pm 39.1 NNE 9 15 1005.2 - 0.0 - - 10 - - - -
16/04:30pm 38.9 N 9 16 1005.5 - 0.0 - - 10 - - - -
16/04:00pm 38.3 N 11 16 1005.8 - 0.0 - - 10 - - - -
16/03:30pm 38.9 N 12 19 1006.0 - 0.0 - - 10 - - - -
16/03:00pm 37.9 N 13 18 1006.2 - 0.0 - - 10 - - - -
16/02:30pm 37.3 N 15 21 1006.6 - 0.0 - - 10 - - - -
16/02:00pm 36.6 N 16 20 1007.1 - 0.0 - - 10 - - - -
16/01:30pm 36.3 N 17 24 1007.4 - 0.0 - - 10 - - - -
16/01:00pm 35.2 N 19 25 1007.8 - 0.0 - - 10 - - - -
16/12:30pm 34.2 NNE 19 24 1008.0 - 0.0 - - 10 - - - -
16/12:00pm 33.8 NNE 18 27 1008.4 - 0.0 - - 10 - - - -
16/11:30am 32.7 N 19 25 1008.5 - 0.0 - - 10 - - - -
16/11:00am 30.9 NNE 20 27 1008.7 - 0.0 - - 10 - - - -
16/10:30am 29.6 NNE 18 23 1008.9 - 0.0 - - 10 - - - -
16/10:00am 28.0 NNE 16 21 1009.2 - 0.0 - - 10 - - - -
16/09:30am 26.1 NNE 17 23 1009.3 - 0.0 - - 10 - - - -
16/09:00am 23.5 NE 13 16 1009.4 - 0.0 - - 10 - - - -
16/08:30am 21.1 NE 9 12 1009.5 - 0.0 - - 10 - - - -
16/08:00am 19.2 NE 8 10 1009.5 - 0.0 - - 10 - - - -
16/07:30am 17.0 NE 7 8 1009.3 - 0.0 - - 10 - - - -
16/07:00am 16.0 NE 7 9 1009.2 - 0.0 - - 10 - - - -
16/06:30am 15.8 NE 7 9 1009.1 - 0.0 - - 10 - - - -
16/06:00am 15.7 NE 8 9 1009.2 - 0.0 - - 10 - - - -
16/05:30am 15.3 ENE 7 7 1009.2 - 0.0 - - 10 - - - -
16/05:00am 15.6 E 5 7 1009.2 - 0.0 - - 10 - - - -
16/04:30am 15.6 E 7 8 1009.2 - 0.0 - - 10 - - - -
16/04:00am 15.7 ESE 7 7 1009.4 - 0.0 - - 8 - - - -
16/03:30am 15.8 ESE 7 8 1009.5 - 0.0 - - 8 - - - -
16/03:00am 16.2 ESE 7 9 1009.8 - 0.0 - - 8 - - - -
16/02:30am 16.4 ESE 8 9 1010.2 - 0.0 - - 9 - - - -
16/02:00am 16.7 ESE 7 8 1010.6 - 0.0 - - 8 - - - -
16/01:49am 16.9 ESE 7 8 1010.8 - 0.0 - - 8 - - - -
16/01:37am 17.0 ESE 7 8 1011.0 - 0.0 - - 7 - - - -
16/01:30am 17.1 ESE 7 9 1011.0 - 0.0 - - 8 - - - -
16/01:00am 17.4 SE 8 10 1011.3 - 0.0 - - 8 - - - -
16/12:30am 17.6 SE 8 9 1011.5 - 0.0 - - 8 - - - -
16/12:00am 17.9 SE 8 11 1011.7 - 0.0 - - 9 - - - -
 
Date/Time
CDT
Temp
°C
Wind Pressure Rain since
9am
mm
Weather Cloud Vis
km
Sea
Height
m
Swell
Dir  Spd
kts
Gust
kts
hPa Trend Height
m
Period
s
Dir
15/11:30pm 18.1 SE 11 14 1011.8 - 0.0 - - 10 - - - -
15/11:00pm 18.2 SE 10 12 1012.1 - 0.0 - - 10 - - - -
15/10:30pm 18.4 SE 10 13 1012.2 - 0.0 - - 10 - - - -
15/10:00pm 18.6 SE 10 12 1012.1 - 0.0 - - 10 - - - -
15/09:30pm 19.0 SE 10 13 1012.2 - 0.0 - - 10 - - - -
15/09:00pm 19.6 SE 11 14 1012.3 - 0.0 - - 10 - - - -
15/08:30pm 20.7 SE 11 15 1012.1 - 0.0 - - 10 - - - -
15/08:00pm 21.6 SE 15 18 1011.9 - 0.0 - - 10 - - - -
15/07:30pm 22.3 SE 16 19 1011.8 - 0.0 - - 10 - - - -
15/07:00pm 23.3 SE 15 19 1011.9 - 0.0 - - 10 - - - -
15/06:30pm 23.9 SE 13 17 1012.1 - 0.0 - - 10 - - - -
15/06:00pm 24.0 SE 15 18 1012.4 - 0.0 - - 10 - - - -
15/05:30pm 24.5 SE 15 18 1012.9 - 0.0 - - 10 - - - -
15/05:00pm 24.8 SSE 14 17 1013.1 - 0.0 - - 10 - - - -
15/04:30pm 25.0 SE 13 15 1013.6 - 0.0 - - 10 - - - -
15/04:00pm 25.3 SE 12 16 1013.8 - 0.0 - - 10 - - - -
15/03:30pm 25.3 SE 12 15 1014.3 - 0.0 - - 10 - - - -
15/03:00pm 25.5 SE 11 14 1014.7 - 0.0 - - 10 - - - -
15/02:30pm 25.4 SE 10 13 1015.1 - 0.0 - - 10 - - - -
15/02:00pm 24.2 SE 10 14 1015.3 - 0.0 - - 10 - - - -
15/01:30pm 24.4 SE 9 14 1015.8 - 0.0 - - 10 - - - -
15/01:00pm 24.1 ESE 9 13 1016.1 - 0.0 - - 10 - - - -
15/12:30pm 23.2 ESE 9 13 1016.4 - 0.0 - - 10 - - - -
15/12:00pm 22.4 ESE 9 12 1016.6 - 0.0 - Mostly clear 10 - - - -
15/11:30am 21.7 ESE 9 13 1017.0 - 0.0 - - - - - - -
15/11:00am 20.6 ESE 10 15 1017.5 - 0.0 - - - - - - -
15/10:30am 20.3 ESE 13 16 1017.6 - 0.0 - - - - - - -
15/10:00am 19.6 ESE 15 18 1018.1 - 0.0 - - 10 - - - -
15/09:30am 19.2 ESE 15 19 1018.2 - 0.0 - - 10 - - - -
15/09:00am 18.5 ESE 14 18 1018.4 - 0.0 - - 10 - - - -
15/08:30am 17.2 ESE 13 18 1018.4 - 0.0 - - 10 - - - -
15/08:15am 16.4 ESE 9 13 1018.4 - 0.0 - - 9 - - - -
15/08:00am 15.5 ESE 8 10 1018.3 - 0.0 - - 7 - - - -
15/07:30am 14.2 E 7 9 1018.2 - 0.0 - - 6 - - - -
15/07:00am 13.4 E 6 7 1017.8 - 0.0 - - 7 - - - -
15/06:59am 13.4 E 6 7 1017.8 - 0.0 - - 7 - - - -
15/06:30am 14.0 E 7 8 1017.8 - 0.0 - - 10 - - - -
15/06:00am 14.5 ESE 8 10 1017.5 - 0.0 - - 10 - - - -
15/05:30am 14.3 ESE 7 8 1017.3 - 0.0 - - 10 - - - -
15/05:00am 14.3 ESE 7 9 1017.3 - 0.0 - - 10 - - - -
15/04:30am 14.4 ESE 7 9 1017.3 - 0.0 - - 9 - - - -
15/04:00am 14.8 ESE 7 9 1017.6 - 0.0 - Partly cloudy 8 - - - -
15/03:43am 15.2 ESE 7 9 1017.7 - 0.0 - Partly cloudy 8 - - - -
15/03:30am 15.2 E 6 8 1017.8 - 0.0 - Partly cloudy 7 - - - -
15/03:16am 15.3 ENE 6 8 1017.9 - 0.0 - Partly cloudy 7 - - - -
15/03:00am 15.9 ENE 6 8 1018.0 - 0.0 - Mostly cloudy 10 - - - -
15/02:30am 16.6 E 8 11 1018.0 - 0.0 - Cloudy 10 - - - -
15/02:00am 16.4 ESE 11 15 1017.8 - 0.0 - Partly cloudy 10 - - - -
15/01:30am 16.5 SE 13 16 1017.8 - 0.0 - Partly cloudy 10 - - - -
15/01:00am 16.6 ESE 12 15 1018.0 - 0.0 - Partly cloudy 10 - - - -
15/12:30am 16.8 SE 13 17 1018.1 - 0.0 - Partly cloudy 10 - - - -
15/12:00am 17.0 SE 13 16 1018.4 - 0.0 - Mostly cloudy - - - - -
 
Date/Time
CDT
Temp
°C
Wind Pressure Rain since
9am
mm
Weather Cloud Vis
km
Sea
Height
m
Swell
Dir  Spd
kts
Gust
kts
hPa Trend Height
m
Period
s
Dir
14/11:30pm 17.6 SE 13 17 1018.4 - 0.0 - Cloudy - - - - -
14/11:00pm 17.7 SE 14 19 1018.6 - 0.0 - Cloudy - - - - -
14/10:30pm 17.7 SE 13 17 1018.6 - 0.0 - Cloudy 10 - - - -
14/10:00pm 17.3 SE 11 14 1018.4 - 0.0 - Partly cloudy 10 - - - -
14/09:30pm 17.2 SE 12 15 1018.2 - 0.0 - - 10 - - - -
14/09:00pm 17.6 SE 13 18 1018.0 - 0.0 - - - - - - -
14/08:30pm 18.2 SE 15 20 1017.9 - 0.0 - Partly cloudy - - - - -
14/08:00pm 19.0 SE 16 21 1017.7 - 0.0 - Partly cloudy - - - - -
14/07:30pm 19.5 SSE 17 21 1017.5 - 0.0 - Partly cloudy - - - - -
14/07:00pm 20.2 SE 17 21 1017.5 - 0.0 - Partly cloudy - - - - -
14/06:30pm 20.2 SSE 17 22 1017.5 - 0.0 - Partly cloudy - - - - -
14/06:00pm 20.5 SSE 16 21 1017.6 - 0.0 - Mostly clear - - - - -
14/05:30pm 20.7 SSE 15 19 1018.0 - 0.0 - Partly cloudy - - - - -
14/05:00pm 20.9 SSE 14 19 1018.2 - 0.0 - Partly cloudy - - - - -
14/04:30pm 21.2 SE 14 20 1018.6 - 0.0 - Partly cloudy - - - - -
14/04:00pm 20.8 SSE 13 19 1018.8 - 0.0 - Partly cloudy - - - - -
14/03:30pm 21.0 SSE 12 16 1019.1 - 0.0 - Cloudy - - - - -
14/03:00pm 20.6 SSE 13 16 1019.4 - 0.0 - Mostly cloudy - - - - -
14/02:30pm 20.9 SSE 11 16 1019.3 - 0.0 - Cloudy - - - - -
14/02:00pm 20.5 SSE 11 16 1019.3 - 0.0 - Cloudy - - - - -
14/01:30pm 21.2 SSE 10 16 1019.5 - 0.0 - Cloudy - - - - -

Other Formats:

Comma delimited format used in spreadsheet applications
http://www.bom.gov.au/fwo/IDS60701/IDS60701.94651.axf

JavaScript Object Notation format (JSON) in row-major order
http://www.bom.gov.au/fwo/IDS60701/IDS60701.94651.json